Time;durP1;ratioP1;P1;durP2;ratioP2;P2;SDS_P1;SDS_P2;PMS_P1;PMS_P2;Temp;Humidity;BMP_temperature;BMP_pressure;BME280_temperature;BME280_humidity;BME280_pressure;Samples;Min_cycle;Max_cycle;Signal;HPM_P1;HPM_P2
2023/01/28 00:00:05;;;;;;;12.45;7.43;;;2.70;99.90;;;;;;5012779;28;20907;-89
2023/01/28 00:02:32;;;;;;;16.63;10.02;;;2.70;99.90;;;;;;4995875;28;20045;-89
2023/01/28 00:04:58;;;;;;;12.43;7.88;;;2.70;99.90;;;;;;5011373;28;20038;-88
2023/01/28 00:07:24;;;;;;;13.70;8.68;;;2.60;99.90;;;;;;5012618;28;20034;-87
2023/01/28 00:09:49;;;;;;;13.90;8.57;;;2.70;99.90;;;;;;5012890;28;20056;-88
2023/01/28 00:12:16;;;;;;;13.95;9.13;;;2.70;99.90;;;;;;4994962;28;20294;-88
2023/01/28 00:14:42;;;;;;;12.95;8.57;;;2.70;99.90;;;;;;5012572;28;20473;-88
2023/01/28 00:17:08;;;;;;;15.88;9.60;;;2.70;99.90;;;;;;4991870;28;20184;-89
2023/01/28 00:19:33;;;;;;;13.55;8.73;;;2.60;99.90;;;;;;4992264;28;20125;-88
2023/01/28 00:21:59;;;;;;;12.38;8.43;;;2.70;99.90;;;;;;4996503;28;20088;-89
2023/01/28 00:24:25;;;;;;;14.10;9.25;;;2.60;99.90;;;;;;5008766;28;20115;-89
2023/01/28 00:26:50;;;;;;;14.52;8.50;;;2.60;99.90;;;;;;5010723;28;20045;-88
2023/01/28 00:29:16;;;;;;;13.63;8.27;;;2.60;99.90;;;;;;4992980;28;20058;-88
2023/01/28 00:31:42;;;;;;;13.00;8.50;;;2.60;99.90;;;;;;5014016;28;20130;-89
2023/01/28 00:34:08;;;;;;;13.05;8.93;;;2.60;99.90;;;;;;4996122;28;20084;-88
2023/01/28 00:36:38;;;;;;;13.85;9.05;;;2.60;99.90;;;;;;5008966;28;20045;-88
2023/01/28 00:39:05;;;;;;;12.82;8.38;;;2.50;99.90;;;;;;4996259;28;20088;-88
2023/01/28 00:41:31;;;;;;;12.52;8.60;;;2.50;99.90;;;;;;5007234;28;20038;-90
2023/01/28 00:43:57;;;;;;;13.55;9.57;;;2.50;99.90;;;;;;5011974;28;20064;-89
2023/01/28 00:46:25;;;;;;;13.30;8.77;;;2.50;99.90;;;;;;5011839;28;20049;-88
2023/01/28 00:48:50;;;;;;;12.38;8.07;;;2.50;99.90;;;;;;5013200;28;20041;-89
2023/01/28 00:51:18;;;;;;;13.20;8.63;;;2.50;99.90;;;;;;5011907;28;20100;-89
2023/01/28 00:53:44;;;;;;;16.90;9.25;;;2.40;99.90;;;;;;5009200;28;20053;-89
2023/01/28 00:56:13;;;;;;;12.73;7.82;;;2.40;99.90;;;;;;5011366;28;20045;-89
2023/01/28 00:58:39;;;;;;;12.27;7.50;;;2.40;99.90;;;;;;5007715;28;20056;-88
2023/01/28 01:01:12;;;;;;;13.02;7.78;;;2.40;99.90;;;;;;5011701;28;20046;-88
2023/01/28 01:03:38;;;;;;;13.07;8.25;;;2.40;99.90;;;;;;5012368;28;20049;-89
2023/01/28 01:06:04;;;;;;;12.93;8.05;;;2.40;99.90;;;;;;5011916;28;20081;-89
2023/01/28 01:08:38;;;;;;;13.65;8.20;;;2.40;99.90;;;;;;5011364;28;20086;-88
2023/01/28 01:11:06;;;;;;;14.70;9.50;;;2.40;99.90;;;;;;5011377;28;20037;-88
2023/01/28 01:13:33;;;;;;;15.45;9.35;;;2.40;99.90;;;;;;5011488;28;20026;-88
2023/01/28 01:16:10;;;;;;;14.50;8.70;;;2.40;99.90;;;;;;4995046;28;20042;-88
2023/01/28 01:18:40;;;;;;;14.23;8.48;;;2.40;99.90;;;;;;4997006;28;20042;-88
2023/01/28 01:21:12;;;;;;;12.10;7.30;;;2.40;99.90;;;;;;5012783;28;20045;-89
2023/01/28 01:23:39;;;;;;;13.20;9.02;;;2.30;99.90;;;;;;5010591;28;20052;-88
2023/01/28 01:26:05;;;;;;;12.30;7.60;;;2.30;99.90;;;;;;4995039;28;20052;-88
2023/01/28 01:28:31;;;;;;;11.52;7.82;;;2.30;99.90;;;;;;4995572;28;20128;-88
2023/01/28 01:31:02;;;;;;;12.85;8.07;;;2.30;99.90;;;;;;4995818;28;20121;-89
2023/01/28 01:33:29;;;;;;;14.27;8.50;;;2.30;99.90;;;;;;5012566;28;20042;-87
2023/01/28 01:35:55;;;;;;;13.05;8.88;;;2.30;99.90;;;;;;5013755;28;20042;-89
2023/01/28 01:38:21;;;;;;;12.73;8.45;;;2.30;99.90;;;;;;5012499;28;20124;-89
2023/01/28 01:40:47;;;;;;;13.35;8.75;;;2.30;99.90;;;;;;5014583;28;20080;-89
2023/01/28 01:43:21;;;;;;;13.68;8.98;;;2.30;99.90;;;;;;5014372;28;20266;-89
2023/01/28 01:45:59;;;;;;;12.70;8.13;;;2.20;99.90;;;;;;5014455;28;20054;-89
2023/01/28 01:48:32;;;;;;;13.68;8.02;;;2.30;99.90;;;;;;5015109;28;20044;-89
2023/01/28 01:51:11;;;;;;;13.98;8.95;;;2.20;99.90;;;;;;4998943;28;20053;-88
2023/01/28 01:53:42;;;;;;;14.50;8.73;;;2.20;99.90;;;;;;5016682;28;20045;-89
2023/01/28 01:56:13;;;;;;;14.77;8.80;;;2.20;99.90;;;;;;5013130;28;20077;-89
2023/01/28 01:58:42;;;;;;;13.52;8.98;;;2.20;99.90;;;;;;5033435;28;20030;-89
2023/01/28 02:01:08;;;;;;;14.70;9.05;;;2.20;99.90;;;;;;4996411;28;20065;-90
2023/01/28 02:03:54;;;;;;;13.48;9.40;;;2.20;99.90;;;;;;5009924;28;20041;-89
2023/01/28 02:06:21;;;;;;;13.55;8.32;;;2.20;99.90;;;;;;5012356;28;20057;-89
2023/01/28 02:08:46;;;;;;;12.95;8.25;;;2.30;99.90;;;;;;4995711;28;20133;-89
2023/01/28 02:11:16;;;;;;;14.07;9.20;;;2.30;99.90;;;;;;5014026;28;20080;-89
2023/01/28 02:13:46;;;;;;;12.88;8.40;;;2.20;99.90;;;;;;5004180;28;20038;-88
2023/01/28 02:16:12;;;;;;;13.98;7.90;;;2.20;99.90;;;;;;5028527;28;20042;-89
2023/01/28 02:18:37;;;;;;;13.85;8.80;;;2.20;99.90;;;;;;5015994;28;20064;-89
2023/01/28 02:21:14;;;;;;;13.48;8.50;;;2.20;99.90;;;;;;5011341;28;20037;-88
2023/01/28 02:23:55;;;;;;;14.27;8.88;;;2.20;99.90;;;;;;5000419;28;20093;-89
2023/01/28 02:26:34;;;;;;;13.13;8.32;;;2.20;99.90;;;;;;5021916;28;20038;-88
2023/01/28 02:29:19;;;;;;;15.35;9.90;;;2.20;99.90;;;;;;5013069;28;20049;-88
2023/01/28 02:32:03;;;;;;;13.10;8.80;;;2.20;99.90;;;;;;4994692;28;20100;-89
2023/01/28 02:34:40;;;;;;;14.93;8.65;;;2.30;99.90;;;;;;4991575;28;20041;-88
2023/01/28 02:37:12;;;;;;;13.25;8.93;;;2.20;99.90;;;;;;5011256;28;20050;-88
2023/01/28 02:39:46;;;;;;;13.55;8.77;;;2.20;99.90;;;;;;5010557;28;20038;-89
2023/01/28 02:42:22;;;;;;;13.32;8.35;;;2.20;99.90;;;;;;4993961;28;20068;-89
2023/01/28 02:44:48;;;;;;;13.40;8.65;;;2.20;99.90;;;;;;5007985;28;20064;-88
2023/01/28 02:50:04;;;;;;;13.65;8.80;;;2.20;99.90;;;;;;5009969;28;20042;-88
2023/01/28 02:53:39;;;;;;;13.40;8.30;;;2.20;99.90;;;;;;4993208;28;20093;-89
2023/01/28 02:56:33;;;;;;;14.65;8.00;;;2.10;99.90;;;;;;4956458;28;20058;-88
2023/01/28 02:59:29;;;;;;;12.32;7.50;;;2.20;99.90;;;;;;4988999;28;20053;-89
2023/01/28 03:01:58;;;;;;;12.75;7.68;;;2.20;99.90;;;;;;4988695;28;20050;-88
2023/01/28 03:04:37;;;;;;;12.80;8.20;;;2.20;99.90;;;;;;4988383;28;20055;-86
2023/01/28 03:07:06;;;;;;;13.40;8.90;;;2.20;99.90;;;;;;4967717;28;20410;-87
2023/01/28 03:09:33;;;;;;;13.60;8.57;;;2.20;99.90;;;;;;4992208;28;20038;-88
2023/01/28 03:38:17;;;;;;;15.35;7.75;;;2.20;99.90;;;;;;5012671;28;20073;-89
2023/01/28 03:41:01;;;;;;;14.35;8.52;;;2.20;99.90;;;;;;5013577;28;20041;-88
2023/01/28 03:43:28;;;;;;;12.93;7.75;;;2.20;99.90;;;;;;5013226;28;20421;-88
2023/01/28 03:45:54;;;;;;;13.18;8.25;;;2.10;99.90;;;;;;5008654;28;20061;-88
2023/01/28 03:48:25;;;;;;;12.90;7.80;;;2.10;99.90;;;;;;5011850;28;20449;-89
2023/01/28 03:50:53;;;;;;;11.77;7.45;;;2.10;99.90;;;;;;5012612;28;20057;-88
2023/01/28 03:53:19;;;;;;;12.90;8.13;;;2.10;99.90;;;;;;4992814;28;20088;-89
2023/01/28 03:55:47;;;;;;;13.43;8.32;;;2.20;99.90;;;;;;5013859;28;20046;-89
2023/01/28 03:58:14;;;;;;;13.32;8.52;;;2.10;99.90;;;;;;5013735;28;20073;-89
2023/01/28 04:00:41;;;;;;;14.25;8.38;;;2.10;99.90;;;;;;5013243;28;20033;-89
2023/01/28 04:03:15;;;;;;;12.18;7.43;;;2.10;99.90;;;;;;4996901;28;20034;-88
2023/01/28 04:05:59;;;;;;;12.38;7.20;;;2.10;99.90;;;;;;5012808;28;20034;-88
2023/01/28 04:08:25;;;;;;;12.40;7.50;;;2.10;99.90;;;;;;5013053;28;20034;-88
2023/01/28 04:10:52;;;;;;;14.40;8.05;;;2.10;99.90;;;;;;5011734;28;20105;-89
2023/01/28 04:13:17;;;;;;;13.20;7.93;;;2.10;99.90;;;;;;4994505;28;20038;-87
2023/01/28 04:15:44;;;;;;;14.38;8.55;;;2.10;99.90;;;;;;5012476;28;20045;-89
2023/01/28 04:18:10;;;;;;;13.18;8.18;;;2.10;99.90;;;;;;5011204;28;20492;-89
2023/01/28 04:20:36;;;;;;;12.85;7.85;;;2.10;99.90;;;;;;5012637;28;20785;-88
2023/01/28 04:23:03;;;;;;;14.68;8.15;;;2.10;99.90;;;;;;5010165;28;20031;-88
2023/01/28 04:25:29;;;;;;;14.57;7.65;;;2.10;99.90;;;;;;4993967;28;20042;-88
2023/01/28 04:27:54;;;;;;;13.50;6.82;;;2.10;99.90;;;;;;5012537;28;20045;-89
2023/01/28 04:30:20;;;;;;;14.43;8.43;;;2.10;99.90;;;;;;5011490;28;20873;-89
2023/01/28 04:32:46;;;;;;;12.98;7.70;;;2.10;99.90;;;;;;5013559;28;20444;-89
2023/01/28 04:35:12;;;;;;;12.68;7.32;;;2.10;99.90;;;;;;5012932;28;20033;-89
2023/01/28 04:37:40;;;;;;;13.00;6.82;;;2.10;99.90;;;;;;5014430;28;20454;-88
2023/01/28 04:40:06;;;;;;;12.77;7.72;;;2.10;99.90;;;;;;5011136;28;20038;-89
2023/01/28 04:42:32;;;;;;;14.43;8.07;;;2.10;99.90;;;;;;5012892;28;20034;-89
2023/01/28 04:44:57;;;;;;;13.40;7.78;;;2.10;99.90;;;;;;5014412;28;20064;-89
2023/01/28 04:47:23;;;;;;;13.55;8.27;;;2.10;99.90;;;;;;5019669;28;20129;-89
2023/01/28 04:49:49;;;;;;;13.25;7.75;;;2.10;99.90;;;;;;5004195;28;20188;-88
2023/01/28 04:52:14;;;;;;;12.82;7.53;;;2.10;99.90;;;;;;5022520;28;20121;-89
2023/01/28 04:54:40;;;;;;;11.95;6.90;;;2.10;99.90;;;;;;5020501;28;20065;-89
2023/01/28 04:57:06;;;;;;;12.20;7.03;;;2.10;99.90;;;;;;5020298;28;20042;-88
2023/01/28 04:59:31;;;;;;;13.32;7.80;;;2.10;99.90;;;;;;5003492;28;20078;-90
2023/01/28 05:01:57;;;;;;;12.27;7.25;;;2.10;99.90;;;;;;5030599;28;20049;-90
2023/01/28 05:04:23;;;;;;;12.45;7.47;;;2.10;99.90;;;;;;5031872;28;20050;-89
2023/01/28 05:06:49;;;;;;;12.70;6.75;;;2.10;99.90;;;;;;5018748;28;20033;-88
2023/01/28 05:09:15;;;;;;;14.00;7.60;;;2.10;99.90;;;;;;5034960;28;20025;-89
2023/01/28 05:11:40;;;;;;;13.77;8.23;;;2.10;99.90;;;;;;4999312;28;20598;-89
2023/01/28 05:14:06;;;;;;;12.02;7.05;;;2.10;99.90;;;;;;4996473;28;20046;-88
2023/01/28 05:16:33;;;;;;;12.05;6.57;;;2.10;99.90;;;;;;4997581;28;20069;-88
2023/01/28 05:18:59;;;;;;;13.25;7.00;;;2.10;99.90;;;;;;5012250;28;20116;-89
2023/01/28 05:21:26;;;;;;;12.73;7.35;;;2.10;99.90;;;;;;5011379;28;20056;-88
2023/01/28 05:23:51;;;;;;;12.63;7.45;;;2.10;99.90;;;;;;5011699;28;20045;-89
2023/01/28 05:26:17;;;;;;;12.18;7.20;;;2.10;99.90;;;;;;5008754;28;20141;-87
2023/01/28 05:28:43;;;;;;;14.00;7.57;;;2.10;99.90;;;;;;5020127;28;20052;-88
2023/01/28 05:31:09;;;;;;;12.20;7.32;;;2.10;99.90;;;;;;5011802;28;20101;-88
2023/01/28 05:33:35;;;;;;;12.63;7.35;;;2.00;99.90;;;;;;4989830;28;20050;-88
2023/01/28 05:36:00;;;;;;;14.30;7.72;;;2.10;99.90;;;;;;5011364;28;20111;-89
2023/01/28 05:38:26;;;;;;;13.10;6.95;;;2.00;99.90;;;;;;5010674;28;20046;-89
2023/01/28 05:40:52;;;;;;;11.65;6.63;;;2.00;99.90;;;;;;4992225;28;20465;-89
2023/01/28 05:43:17;;;;;;;11.55;7.18;;;2.00;99.90;;;;;;4993380;28;20050;-88
2023/01/28 05:45:43;;;;;;;12.00;6.60;;;2.10;99.90;;;;;;5012418;28;20100;-89
2023/01/28 05:48:09;;;;;;;11.65;7.10;;;2.10;99.90;;;;;;4994918;28;20045;-89
2023/01/28 05:50:34;;;;;;;12.95;7.95;;;2.00;99.90;;;;;;4995517;28;20045;-89
2023/01/28 05:53:00;;;;;;;15.30;8.48;;;2.00;99.90;;;;;;4994106;28;20371;-89
2023/01/28 05:55:25;;;;;;;12.98;7.65;;;2.00;99.90;;;;;;4991834;28;20049;-89
2023/01/28 05:57:51;;;;;;;13.85;7.97;;;2.00;99.90;;;;;;4995134;28;20042;-88
2023/01/28 06:00:17;;;;;;;13.27;7.93;;;2.00;99.90;;;;;;5011217;28;20136;-89
2023/01/28 06:02:43;;;;;;;13.93;7.88;;;2.00;99.90;;;;;;5011312;28;20341;-88
2023/01/28 06:05:09;;;;;;;14.07;7.50;;;2.00;99.90;;;;;;4995192;28;20038;-88
2023/01/28 06:07:34;;;;;;;13.40;7.70;;;2.00;99.90;;;;;;5011420;28;20034;-89
2023/01/28 06:10:00;;;;;;;14.32;8.45;;;2.00;99.90;;;;;;4993093;28;20057;-88
2023/01/28 06:12:26;;;;;;;12.20;7.82;;;2.00;99.90;;;;;;4994023;28;20506;-89
2023/01/28 06:14:51;;;;;;;13.00;8.25;;;1.90;99.90;;;;;;4994609;28;20048;-89
2023/01/28 06:17:17;;;;;;;12.70;7.90;;;2.00;99.90;;;;;;4993738;28;20133;-87
2023/01/28 06:19:43;;;;;;;13.73;7.68;;;2.00;99.90;;;;;;5011852;28;20096;-88
2023/01/28 06:22:09;;;;;;;16.77;8.95;;;1.90;99.90;;;;;;5010669;28;20052;-88
2023/01/28 06:24:34;;;;;;;14.13;8.07;;;1.90;99.90;;;;;;5009938;28;20649;-87
2023/01/28 06:27:00;;;;;;;16.30;7.47;;;1.90;99.90;;;;;;4994474;28;20042;-89
2023/01/28 06:29:26;;;;;;;14.68;8.23;;;1.90;99.90;;;;;;4994128;28;20099;-89
2023/01/28 06:31:52;;;;;;;14.30;8.90;;;1.90;99.90;;;;;;4992743;28;20042;-87
2023/01/28 06:34:17;;;;;;;14.82;7.97;;;1.90;99.90;;;;;;5008017;28;20073;-87
2023/01/28 06:36:43;;;;;;;14.07;8.32;;;1.90;99.90;;;;;;5010194;28;20163;-86
2023/01/28 06:39:08;;;;;;;13.30;8.20;;;1.90;99.90;;;;;;5008972;28;20045;-86
2023/01/28 06:41:34;;;;;;;12.95;7.93;;;1.90;99.90;;;;;;4996801;28;20042;-87
2023/01/28 06:44:00;;;;;;;15.15;9.02;;;1.90;99.90;;;;;;5013155;28;20057;-88
2023/01/28 06:46:27;;;;;;;15.52;9.52;;;1.90;99.90;;;;;;5008603;28;20645;-87
2023/01/28 06:48:52;;;;;;;14.38;8.30;;;1.90;99.90;;;;;;5010841;28;20122;-88
2023/01/28 06:51:18;;;;;;;14.88;9.00;;;1.90;99.90;;;;;;5013382;28;20513;-91
2023/01/28 06:53:44;;;;;;;14.07;8.30;;;1.90;99.90;;;;;;4999648;28;20142;-91
2023/01/28 06:56:09;;;;;;;13.27;8.00;;;1.90;99.90;;;;;;5014884;28;20104;-95
2023/01/28 06:58:35;;;;;;;13.48;7.68;;;1.90;99.90;;;;;;4999864;28;20101;-88
2023/01/28 07:01:01;;;;;;;13.90;7.63;;;1.90;99.90;;;;;;4997409;28;20037;-91
2023/01/28 07:03:26;;;;;;;13.48;8.38;;;1.90;99.90;;;;;;4998074;28;20046;-89
2023/01/28 07:05:52;;;;;;;13.02;7.60;;;1.90;99.90;;;;;;5014419;28;20042;-89
2023/01/28 07:08:18;;;;;;;12.65;8.07;;;1.90;99.90;;;;;;5014784;28;20525;-94
2023/01/28 07:10:43;;;;;;;14.48;8.10;;;1.90;99.90;;;;;;5015569;28;20034;-91
2023/01/28 07:13:09;;;;;;;12.25;7.57;;;1.90;99.90;;;;;;5002806;28;20141;-90
2023/01/28 07:15:35;;;;;;;13.68;8.10;;;1.90;99.90;;;;;;5021839;28;20046;-89
2023/01/28 07:18:01;;;;;;;13.82;7.70;;;1.90;99.90;;;;;;5011657;28;20046;-89
2023/01/28 07:20:27;;;;;;;14.88;7.90;;;1.90;99.90;;;;;;5016862;28;20042;-89
2023/01/28 07:22:53;;;;;;;13.80;8.32;;;1.90;99.90;;;;;;5021543;28;20052;-90
2023/01/28 07:25:18;;;;;;;15.13;8.10;;;1.90;99.90;;;;;;4995247;28;20052;-90
2023/01/28 07:27:52;;;;;;;15.80;8.82;;;1.90;99.90;;;;;;4998641;28;20042;-91
2023/01/28 07:30:19;;;;;;;15.93;9.45;;;1.90;99.90;;;;;;5016669;28;20396;-88
2023/01/28 07:32:45;;;;;;;15.85;9.32;;;1.90;99.90;;;;;;5029524;28;20041;-89
2023/01/28 07:35:12;;;;;;;14.77;8.68;;;1.90;99.90;;;;;;5005205;28;20240;-89
2023/01/28 07:37:38;;;;;;;15.60;9.18;;;1.90;99.90;;;;;;5016070;28;20037;-89
2023/01/28 07:40:04;;;;;;;14.45;8.07;;;1.90;99.90;;;;;;4997157;28;20034;-89
2023/01/28 07:42:30;;;;;;;15.15;9.57;;;1.90;99.90;;;;;;5017961;28;20038;-89
2023/01/28 07:44:56;;;;;;;15.98;8.63;;;1.90;99.90;;;;;;5001103;28;20061;-88
2023/01/28 07:47:22;;;;;;;15.25;8.55;;;1.90;99.90;;;;;;5025791;28;20034;-95
2023/01/28 07:49:47;;;;;;;17.65;10.27;;;1.90;99.90;;;;;;5007760;28;20056;-91
2023/01/28 07:52:13;;;;;;;15.85;9.70;;;1.90;99.90;;;;;;4997779;28;20339;-91
2023/01/28 07:54:39;;;;;;;17.15;9.88;;;1.90;99.90;;;;;;5015357;28;20068;-96
2023/01/28 07:57:08;;;;;;;17.25;9.48;;;1.90;99.90;;;;;;4998797;28;20041;-92
2023/01/28 07:59:34;;;;;;;17.60;9.68;;;1.80;99.90;;;;;;5000311;28;20380;-90
2023/01/28 08:02:00;;;;;;;14.57;8.20;;;1.80;99.90;;;;;;5001213;28;20034;-90
2023/01/28 08:04:26;;;;;;;17.70;8.73;;;1.80;99.90;;;;;;5017612;28;20360;-91
2023/01/28 08:06:51;;;;;;;17.77;9.05;;;1.80;99.90;;;;;;5017753;28;20378;-90
2023/01/28 08:09:17;;;;;;;16.42;9.02;;;1.80;99.90;;;;;;5016533;28;20040;-88
2023/01/28 08:11:43;;;;;;;14.95;8.18;;;1.80;99.90;;;;;;4998332;28;20041;-89
2023/01/28 08:14:10;;;;;;;17.58;9.15;;;1.70;99.90;;;;;;5005817;28;20046;-88
2023/01/28 08:16:36;;;;;;;15.35;9.02;;;1.60;99.90;;;;;;5022955;28;20118;-88
2023/01/28 08:19:02;;;;;;;16.02;9.80;;;1.60;99.90;;;;;;5015539;28;20046;-89
2023/01/28 08:21:27;;;;;;;15.43;8.82;;;1.60;99.90;;;;;;5015643;28;20041;-89
2023/01/28 08:23:54;;;;;;;15.88;8.35;;;1.50;99.90;;;;;;4998889;28;20483;-90
2023/01/28 08:26:19;;;;;;;17.20;8.75;;;1.50;99.90;;;;;;4996665;28;20096;-88
2023/01/28 08:28:45;;;;;;;15.40;8.75;;;1.40;99.90;;;;;;4996053;28;20034;-90
2023/01/28 08:31:11;;;;;;;15.82;8.43;;;1.40;99.90;;;;;;4991075;28;20129;-87
2023/01/28 08:33:36;;;;;;;16.40;9.45;;;1.50;99.90;;;;;;4993898;28;20050;-93
2023/01/28 08:36:03;;;;;;;15.57;8.75;;;1.50;99.90;;;;;;4997746;28;20033;-96
2023/01/28 08:38:30;;;;;;;15.00;8.45;;;1.50;99.90;;;;;;5023695;28;20064;-95
2023/01/28 11:43:28;;;;;;;11.00;6.07;;;4.00;99.90;;;;;;5007661;28;20176;-91
2023/01/28 11:46:17;;;;;;;10.95;5.65;;;4.10;99.90;;;;;;5007357;28;20052;-95
2023/01/28 11:49:06;;;;;;;11.60;6.53;;;4.30;99.90;;;;;;5012815;28;20049;-93
2023/01/28 11:51:35;;;;;;;12.52;5.78;;;4.40;99.90;;;;;;5003614;28;20042;-94
2023/01/28 11:54:15;;;;;;;12.18;6.60;;;4.50;99.90;;;;;;4988599;28;20038;-92
2023/01/28 11:57:00;;;;;;;11.50;5.77;;;4.50;99.90;;;;;;4989318;28;20050;-93
2023/01/28 11:59:34;;;;;;;10.75;5.97;;;4.50;99.90;;;;;;5005145;28;20343;-91
2023/01/28 12:02:08;;;;;;;12.30;6.50;;;4.60;99.90;;;;;;5010153;28;20044;-90
2023/01/28 12:04:59;;;;;;;10.80;5.65;;;4.60;99.90;;;;;;5002571;28;20054;-89
2023/01/28 12:07:51;;;;;;;11.93;7.03;;;4.50;99.90;;;;;;4987498;28;20037;-90
2023/01/28 12:10:38;;;;;;;13.05;7.05;;;4.60;99.90;;;;;;5008965;28;20118;-92
2023/01/28 12:13:13;;;;;;;14.20;6.72;;;4.60;99.90;;;;;;5004269;28;20034;-94
2023/01/28 12:15:58;;;;;;;11.88;6.25;;;4.60;99.90;;;;;;5007396;28;20088;-91
2023/01/28 12:19:22;;;;;;;12.48;6.30;;;4.70;99.90;;;;;;5008827;28;20201;-91
2023/01/28 12:22:05;;;;;;;12.65;6.60;;;4.80;99.90;;;;;;4948272;28;20046;-91
2023/01/28 12:24:56;;;;;;;12.05;6.65;;;4.90;99.90;;;;;;4956195;28;20049;-95
2023/01/28 12:27:49;;;;;;;13.07;11.20;;;5.00;99.90;;;;;;4935513;29;20048;-94
2023/01/28 12:30:27;;;;;;;12.07;6.53;;;5.00;99.90;;;;;;4923118;29;20166;-90
2023/01/28 12:32:58;;;;;;;12.07;7.07;;;5.00;99.90;;;;;;4945362;29;20079;-96
2023/01/28 12:35:52;;;;;;;;;;;5.10;99.90;;;;;;4945565;29;20054;-91
2023/01/28 12:38:34;;;;;;;17.15;5.72;;;5.10;99.90;;;;;;4936111;29;19922;-95
2023/01/28 12:41:17;;;;;;;12.85;6.68;;;5.10;99.90;;;;;;4937959;29;20079;-93
2023/01/28 12:43:59;;;;;;;12.25;6.22;;;5.10;99.90;;;;;;4943485;28;20062;-96
2023/01/28 12:46:46;;;;;;;12.40;6.78;;;5.10;99.90;;;;;;4931580;29;20082;-94
2023/01/28 12:49:20;;;;;;;12.85;6.70;;;5.10;99.90;;;;;;4954443;29;20059;-90
2023/01/28 12:51:56;;;;;;;12.23;6.80;;;5.10;99.90;;;;;;4928224;28;20106;-95
2023/01/28 12:54:34;;;;;;;13.82;7.05;;;5.00;99.90;;;;;;4945661;29;20381;-94
2023/01/28 12:57:00;;;;;;;12.45;6.82;;;4.90;99.90;;;;;;4964370;28;20050;-93
2023/01/28 12:59:29;;;;;;;12.43;9.88;;;4.70;99.90;;;;;;4955935;28;20586;-94
2023/01/28 13:02:10;;;;;;;12.00;5.90;;;4.60;99.90;;;;;;4969377;28;20135;-93
2023/01/28 13:04:44;;;;;;;12.55;6.20;;;4.60;99.90;;;;;;4988985;28;20086;-94
2023/01/28 13:07:16;;;;;;;12.50;6.60;;;4.70;99.90;;;;;;5008605;28;20029;-93
2023/01/28 13:09:53;;;;;;;12.38;6.35;;;4.70;99.90;;;;;;5025532;28;20042;-94
2023/01/28 13:12:20;;;;;;;12.50;6.68;;;4.80;99.90;;;;;;5000061;28;20038;-93
2023/01/28 13:14:47;;;;;;;15.35;7.78;;;4.90;99.90;;;;;;4996388;28;20039;-95
2023/01/28 13:17:30;;;;;;;15.77;12.38;;;4.90;99.90;;;;;;5011561;28;20053;-95
2023/01/28 13:19:58;;;;;;;16.15;8.25;;;5.00;99.90;;;;;;4984800;28;20302;-95
2023/01/28 13:22:34;;;;;;;14.02;7.88;;;5.00;99.90;;;;;;5004084;28;20058;-92
2023/01/28 13:25:26;;;;;;;23.08;9.82;;;5.00;99.90;;;;;;5018501;28;20081;-93
2023/01/28 13:28:01;;;;;;;19.42;9.88;;;5.00;99.90;;;;;;4984336;28;20030;-92
2023/01/28 13:30:45;;;;;;;15.60;8.02;;;5.10;99.90;;;;;;5005791;28;20105;-93
2023/01/28 13:33:31;;;;;;;18.65;10.02;;;5.10;99.90;;;;;;5004731;28;20039;-91
2023/01/28 13:36:00;;;;;;;15.82;8.15;;;5.10;99.90;;;;;;5001326;28;20042;-90
2023/01/28 13:38:26;;;;;;;15.57;9.60;;;5.10;99.90;;;;;;5001470;28;20034;-91
2023/01/28 13:41:05;;;;;;;16.52;9.90;;;5.10;99.90;;;;;;5011682;28;20046;-94
2023/01/28 13:43:36;;;;;;;17.13;10.15;;;5.10;99.90;;;;;;5012445;28;20057;-94
2023/01/28 13:46:06;;;;;;;18.27;8.80;;;5.10;99.90;;;;;;5005980;28;20050;-89
2023/01/28 13:48:31;;;;;;;16.00;8.27;;;5.10;99.90;;;;;;5000552;28;20508;-89
2023/01/28 13:50:59;;;;;;;17.83;14.43;;;5.20;99.90;;;;;;5003479;28;20038;-88
2023/01/28 13:53:32;;;;;;;15.77;8.82;;;5.10;99.90;;;;;;5008077;28;20041;-89
2023/01/28 13:55:58;;;;;;;14.35;8.13;;;5.20;99.90;;;;;;5002096;28;20038;-88
2023/01/28 13:59:02;;;;;;;12.98;7.28;;;5.20;99.90;;;;;;5002124;28;20116;-87
2023/01/28 14:01:46;;;;;;;14.43;6.78;;;5.10;99.90;;;;;;5004751;28;20129;-89
2023/01/28 14:04:34;;;;;;;13.85;7.85;;;5.00;99.90;;;;;;4998056;28;20112;-88
2023/01/28 14:07:40;;;;;;;13.25;7.28;;;5.10;99.90;;;;;;5005739;28;20066;-88
2023/01/28 14:10:27;;;;;;;14.52;7.13;;;5.00;99.90;;;;;;4986508;28;20061;-88
2023/01/28 14:13:24;;;;;;;14.15;8.07;;;5.00;99.90;;;;;;4941305;28;20046;-88
2023/01/28 14:15:57;;;;;;;16.45;7.93;;;5.00;99.90;;;;;;4965483;28;20100;-88
2023/01/28 14:18:42;;;;;;;13.95;10.73;;;5.10;99.90;;;;;;4989668;28;20069;-90
2023/01/28 14:21:14;;;;;;;14.20;7.15;;;5.20;99.90;;;;;;4983857;28;20042;-88
2023/01/28 14:23:47;;;;;;;14.40;6.55;;;5.20;99.90;;;;;;4986587;28;20047;-90
2023/01/28 14:26:18;;;;;;;15.00;6.97;;;5.30;99.90;;;;;;4974188;28;20061;-91
2023/01/28 14:29:07;;;;;;;13.98;6.30;;;5.30;99.90;;;;;;4976979;28;20138;-90
2023/01/28 14:31:37;;;;;;;13.63;7.43;;;5.30;99.90;;;;;;4977124;28;20238;-90
2023/01/28 14:34:27;;;;;;;15.67;8.37;;;5.20;99.90;;;;;;4989246;28;20066;-90
2023/01/28 14:37:01;;;;;;;15.77;9.05;;;5.20;99.90;;;;;;4990478;28;20061;-90
2023/01/28 14:39:30;;;;;;;17.23;13.55;;;5.10;99.90;;;;;;4992993;28;20073;-91
2023/01/28 14:42:00;;;;;;;18.95;9.85;;;5.10;99.90;;;;;;5003101;28;20174;-89
2023/01/28 14:44:36;;;;;;;21.73;12.57;;;5.10;99.90;;;;;;4983834;28;20098;-90
2023/01/28 14:47:09;;;;;;;31.08;17.35;;;5.10;99.90;;;;;;5003193;28;20041;-90
2023/01/28 14:50:13;;;;;;;19.52;16.23;;;5.10;99.90;;;;;;5005853;28;20112;-91
2023/01/28 14:52:54;;;;;;;16.17;9.02;;;5.10;99.90;;;;;;5010452;28;20037;-91
2023/01/28 14:55:35;;;;;;;14.55;6.63;;;5.10;99.90;;;;;;5011162;28;20046;-89
2023/01/28 14:58:05;;;;;;;16.23;8.35;;;5.00;99.90;;;;;;5005915;28;20100;-89
2023/01/28 15:00:33;;;;;;;15.00;8.32;;;5.00;99.90;;;;;;5008647;28;20105;-88
2023/01/28 15:02:59;;;;;;;20.23;12.75;;;5.00;99.90;;;;;;4987865;28;20042;-89
2023/01/28 15:05:29;;;;;;;21.95;14.20;;;4.90;99.90;;;;;;5028098;28;20030;-95
2023/01/28 18:10:46;;;;;;;16.25;7.47;;;3.70;99.90;;;;;;4847036;26;20042;-93
2023/01/28 18:13:12;;;;;;;16.27;7.82;;;3.70;99.90;;;;;;5002042;28;20043;-93
2023/01/28 18:15:37;;;;;;;16.38;6.50;;;3.70;99.90;;;;;;5019649;28;20042;-93
2023/01/28 18:18:03;;;;;;;15.40;7.93;;;3.70;99.90;;;;;;5015413;28;20042;-94
2023/01/28 18:20:28;;;;;;;16.98;7.72;;;3.70;99.90;;;;;;5001061;28;20540;-94
2023/01/28 18:22:54;;;;;;;16.80;7.63;;;3.70;99.90;;;;;;5003826;28;20381;-95
2023/01/28 18:25:20;;;;;;;17.35;8.90;;;3.70;99.90;;;;;;4995807;28;20049;-94
2023/01/28 18:27:45;;;;;;;17.30;8.57;;;3.70;99.90;;;;;;5017615;28;20041;-94
2023/01/28 18:30:12;;;;;;;18.88;9.35;;;3.70;99.90;;;;;;5006327;28;20040;-94
2023/01/28 18:32:39;;;;;;;19.58;10.45;;;3.70;99.90;;;;;;5012615;28;20491;-95
2023/01/28 18:35:05;;;;;;;20.20;11.05;;;3.70;99.90;;;;;;5014706;28;20482;-94
2023/01/28 18:37:31;;;;;;;22.35;9.48;;;3.70;99.90;;;;;;5012170;28;20402;-95
2023/01/28 18:39:57;;;;;;;19.65;10.85;;;3.70;99.90;;;;;;5016022;28;20038;-93
2023/01/28 18:42:22;;;;;;;20.35;10.75;;;3.70;99.90;;;;;;5030909;28;20064;-95
2023/01/28 18:44:48;;;;;;;23.05;11.43;;;3.70;99.90;;;;;;5017340;28;20022;-96
2023/01/28 18:47:14;;;;;;;25.05;12.25;;;3.70;99.90;;;;;;5015671;28;20052;-94
2023/01/28 18:49:42;;;;;;;21.05;10.73;;;3.70;99.90;;;;;;5008104;28;20535;-93
2023/01/28 18:52:08;;;;;;;21.67;11.82;;;3.70;99.90;;;;;;5013444;28;20069;-96
2023/01/28 18:54:34;;;;;;;22.40;11.57;;;3.70;99.90;;;;;;4996612;28;20034;-94
2023/01/28 18:56:59;;;;;;;24.08;11.70;;;3.70;99.90;;;;;;5019646;28;20022;-94
2023/01/28 18:59:25;;;;;;;25.20;11.32;;;3.70;99.90;;;;;;5023006;28;20203;-96
2023/01/28 19:01:51;;;;;;;26.33;12.50;;;3.70;99.90;;;;;;4998190;28;20122;-95
2023/01/28 19:04:17;;;;;;;26.95;11.60;;;3.70;99.90;;;;;;5029971;28;20046;-94
2023/01/28 19:06:44;;;;;;;23.90;12.52;;;3.70;99.90;;;;;;4998239;28;20038;-95
2023/01/28 19:09:12;;;;;;;25.00;12.50;;;3.70;99.90;;;;;;5013343;28;20057;-94
2023/01/28 19:11:39;;;;;;;22.25;10.73;;;3.70;99.90;;;;;;5031659;28;20101;-95
2023/01/28 19:14:05;;;;;;;22.95;11.77;;;3.70;99.90;;;;;;5010121;28;20108;-94
2023/01/28 19:16:33;;;;;;;23.17;10.65;;;3.70;99.90;;;;;;5003035;28;20042;-95
2023/01/28 19:19:00;;;;;;;24.45;11.00;;;3.80;99.90;;;;;;5016553;28;20045;-94
2023/01/28 19:21:28;;;;;;;23.00;10.70;;;3.80;99.90;;;;;;5009696;28;20044;-92
2023/01/28 19:23:57;;;;;;;20.73;9.77;;;3.70;99.90;;;;;;5009098;28;20037;-95
2023/01/28 19:26:23;;;;;;;18.75;8.98;;;3.70;99.90;;;;;;5011146;28;20101;-94
2023/01/28 19:28:50;;;;;;;22.48;10.70;;;3.70;99.90;;;;;;5002311;28;20026;-94
2023/01/28 19:31:18;;;;;;;18.73;9.52;;;3.70;99.90;;;;;;5004029;28;20061;-96
2023/01/28 19:33:44;;;;;;;18.67;8.57;;;3.70;99.90;;;;;;5006776;28;20093;-94
2023/01/28 19:36:09;;;;;;;18.23;9.18;;;3.70;99.90;;;;;;4998835;28;20121;-94